Ashland, MS

9:29 AM CDT on June 30, 2015 (GMT -0500)
PHQ | | Change Station
CLOSE
Current Station
Personal Weather Station
Location: Ashland, MS
Elevation: 630 ft
Nearby Weather Stations

Elev 630 ft 34.83 °N, 89.17 °W | Updated 7 minutes ago

Partly Cloudy
Partly Cloudy
80.4 °F
Feels Like 84 °F
N
1.7
Wind Variable Wind from WSW

Today
High -- | Low -- °F
--% Chance of Precip.
Yesterday
High -- | Low -- °F
Precip. -- in
5:46 AM 8:14 PM
Waxing Gibbous, 97% visible
Pressure 29.96 in
Visibility 8.0 miles
Clouds Few 3000 ft
Scattered Clouds 7000 ft
Scattered Clouds 25000 ft
Heat Index 84 °F
Dew Point 72 °F
Humidity 76%
Rainfall in
Snow Depth Not available.
UV 0 out of 12
Pollen 2.20 out of 12
Air Quality Not available.
Flu Activity No Activity
METAR KOLV 301150Z 22006KT 8SM FEW030 SCT070 SCT250 20/20 A2996

More Conditions Fewer Conditions

Pressure 29.96 in
Visibility 8.0 miles
Clouds Few 3000 ft
Scattered Clouds 7000 ft
Scattered Clouds 25000 ft
Heat Index 84 °F
Dew Point 72 °F
Humidity 76%
Rainfall in
Snow Depth Not available.
UV 0 out of 12
Pollen 2.20 out of 12
Air Quality Not available.
Flu Activity No Activity
METAR KOLV 301150Z 22006KT 8SM FEW030 SCT070 SCT250 20/20 A2996

More Conditions Fewer Conditions

10-Day Weather Forecast

×

Almanac

Astronomy

Jun. 30, 2015 Rise Set
Actual Time
Civil Twilight
Nautical Twilight
Astronomical Twilight
Moon
Length of Visible Light
Length of Day
Tomorrow will be .
, % of the Moon is Illuminated

Today's Extremes

State Highs State Lows

Community

WunderPhotos

Upload Photos

1,834,008 photos uploaded!

WunderBlogs® & News

Nearby

Air Quality

  Air Quality AQ Index Pollutant
Not available.

Snow Depth

Station Depth Elevation

Earthquake Activity

City Distance Mag. Time & Date
Minimum magnitude displayed is 2.5.

Coastal Water Temperatures

Place Temperature

Stations

Nearby Weather Stations

Station Location Temp. Windchill Dew Point Humidity Wind Precip. Elev Updated Type